sensor_id;sensor_type;location;lat;lon;timestamp;temperature;humidity
4312;DHT22;2169;49.086;9.284;2023-05-14T00:01:26;14.40;63.60
4312;DHT22;2169;49.086;9.284;2023-05-14T00:03:54;14.30;63.50
4312;DHT22;2169;49.086;9.284;2023-05-14T00:06:21;14.30;63.50
4312;DHT22;2169;49.086;9.284;2023-05-14T00:08:47;14.20;63.50
4312;DHT22;2169;49.086;9.284;2023-05-14T00:11:14;14.10;63.50
4312;DHT22;2169;49.086;9.284;2023-05-14T00:13:41;14.10;63.70
4312;DHT22;2169;49.086;9.284;2023-05-14T00:16:08;14.00;63.60
4312;DHT22;2169;49.086;9.284;2023-05-14T00:18:34;14.00;63.70
4312;DHT22;2169;49.086;9.284;2023-05-14T00:21:02;13.90;63.60
4312;DHT22;2169;49.086;9.284;2023-05-14T00:23:29;13.90;63.70
4312;DHT22;2169;49.086;9.284;2023-05-14T00:25:56;13.80;63.70
4312;DHT22;2169;49.086;9.284;2023-05-14T00:28:23;13.70;63.60
4312;DHT22;2169;49.086;9.284;2023-05-14T00:30:50;13.70;63.80
4312;DHT22;2169;49.086;9.284;2023-05-14T00:33:16;13.60;63.80
4312;DHT22;2169;49.086;9.284;2023-05-14T00:35:43;13.60;63.90
4312;DHT22;2169;49.086;9.284;2023-05-14T00:38:11;13.50;63.90
4312;DHT22;2169;49.086;9.284;2023-05-14T00:40:42;13.50;64.00
4312;DHT22;2169;49.086;9.284;2023-05-14T00:43:10;13.40;64.10
4312;DHT22;2169;49.086;9.284;2023-05-14T00:45:37;13.40;64.10
4312;DHT22;2169;49.086;9.284;2023-05-14T00:48:04;13.40;64.20
4312;DHT22;2169;49.086;9.284;2023-05-14T00:50:31;13.40;64.20
4312;DHT22;2169;49.086;9.284;2023-05-14T00:52:59;13.30;64.20
4312;DHT22;2169;49.086;9.284;2023-05-14T00:55:29;13.30;64.30
4312;DHT22;2169;49.086;9.284;2023-05-14T00:57:57;13.30;64.30
4312;DHT22;2169;49.086;9.284;2023-05-14T01:00:25;13.20;64.30
4312;DHT22;2169;49.086;9.284;2023-05-14T01:02:51;13.20;64.30
4312;DHT22;2169;49.086;9.284;2023-05-14T01:05:18;13.20;64.40
4312;DHT22;2169;49.086;9.284;2023-05-14T01:07:54;13.20;64.40
4312;DHT22;2169;49.086;9.284;2023-05-14T01:10:28;13.20;64.50
4312;DHT22;2169;49.086;9.284;2023-05-14T01:13:03;13.10;64.40
4312;DHT22;2169;49.086;9.284;2023-05-14T01:15:33;13.10;64.50
4312;DHT22;2169;49.086;9.284;2023-05-14T01:18:05;13.10;64.50
4312;DHT22;2169;49.086;9.284;2023-05-14T01:20:32;13.10;64.60
4312;DHT22;2169;49.086;9.284;2023-05-14T01:23:01;13.10;64.60
4312;DHT22;2169;49.086;9.284;2023-05-14T01:25:29;13.10;64.60
4312;DHT22;2169;49.086;9.284;2023-05-14T01:28:00;13.00;64.50
4312;DHT22;2169;49.086;9.284;2023-05-14T01:30:31;13.00;64.60
4312;DHT22;2169;49.086;9.284;2023-05-14T01:33:01;12.90;64.50
4312;DHT22;2169;49.086;9.284;2023-05-14T01:35:29;12.90;64.60
4312;DHT22;2169;49.086;9.284;2023-05-14T01:37:58;12.90;64.70
4312;DHT22;2169;49.086;9.284;2023-05-14T01:40:26;12.80;64.60
4312;DHT22;2169;49.086;9.284;2023-05-14T01:42:54;12.80;64.70
4312;DHT22;2169;49.086;9.284;2023-05-14T01:45:21;12.80;64.70
4312;DHT22;2169;49.086;9.284;2023-05-14T01:47:48;12.70;64.70
4312;DHT22;2169;49.086;9.284;2023-05-14T01:50:15;12.70;64.70
4312;DHT22;2169;49.086;9.284;2023-05-14T01:52:41;12.70;64.70
4312;DHT22;2169;49.086;9.284;2023-05-14T01:55:09;12.70;64.80
4312;DHT22;2169;49.086;9.284;2023-05-14T01:57:37;12.70;64.80
4312;DHT22;2169;49.086;9.284;2023-05-14T02:00:05;12.60;64.80
4312;DHT22;2169;49.086;9.284;2023-05-14T02:02:31;12.60;64.80
4312;DHT22;2169;49.086;9.284;2023-05-14T02:04:58;12.60;64.80
4312;DHT22;2169;49.086;9.284;2023-05-14T02:07:25;12.60;64.80
4312;DHT22;2169;49.086;9.284;2023-05-14T02:09:52;12.60;64.80
4312;DHT22;2169;49.086;9.284;2023-05-14T02:12:19;12.50;64.80
4312;DHT22;2169;49.086;9.284;2023-05-14T02:14:47;12.50;64.90
4312;DHT22;2169;49.086;9.284;2023-05-14T02:17:14;12.50;64.90
4312;DHT22;2169;49.086;9.284;2023-05-14T02:19:42;12.40;65.00
4312;DHT22;2169;49.086;9.284;2023-05-14T02:22:09;12.40;65.00
4312;DHT22;2169;49.086;9.284;2023-05-14T02:24:35;12.40;65.00
4312;DHT22;2169;49.086;9.284;2023-05-14T02:27:02;12.30;65.00
4312;DHT22;2169;49.086;9.284;2023-05-14T02:29:29;12.40;65.10
4312;DHT22;2169;49.086;9.284;2023-05-14T02:31:57;12.30;65.10
4312;DHT22;2169;49.086;9.284;2023-05-14T02:34:24;12.30;65.10
4312;DHT22;2169;49.086;9.284;2023-05-14T02:36:51;12.30;65.20
4312;DHT22;2169;49.086;9.284;2023-05-14T02:39:17;12.20;65.20
4312;DHT22;2169;49.086;9.284;2023-05-14T02:41:44;12.20;65.30
4312;DHT22;2169;49.086;9.284;2023-05-14T02:44:11;12.10;65.30
4312;DHT22;2169;49.086;9.284;2023-05-14T02:46:38;12.10;65.40
4312;DHT22;2169;49.086;9.284;2023-05-14T02:49:06;12.10;65.50
4312;DHT22;2169;49.086;9.284;2023-05-14T02:51:33;12.10;65.50
4312;DHT22;2169;49.086;9.284;2023-05-14T02:53:59;12.10;65.50
4312;DHT22;2169;49.086;9.284;2023-05-14T02:56:26;12.00;65.50
4312;DHT22;2169;49.086;9.284;2023-05-14T02:58:53;12.00;65.50
4312;DHT22;2169;49.086;9.284;2023-05-14T03:01:20;12.00;65.60
4312;DHT22;2169;49.086;9.284;2023-05-14T03:03:46;12.00;65.60
4312;DHT22;2169;49.086;9.284;2023-05-14T03:06:15;11.90;65.70
4312;DHT22;2169;49.086;9.284;2023-05-14T03:08:41;12.00;65.80
4312;DHT22;2169;49.086;9.284;2023-05-14T03:11:08;11.90;65.70
4312;DHT22;2169;49.086;9.284;2023-05-14T03:13:35;11.90;65.70
4312;DHT22;2169;49.086;9.284;2023-05-14T03:16:02;11.90;65.80
4312;DHT22;2169;49.086;9.284;2023-05-14T03:18:29;11.90;65.80
4312;DHT22;2169;49.086;9.284;2023-05-14T03:20:57;11.80;65.70
4312;DHT22;2169;49.086;9.284;2023-05-14T03:23:25;11.80;65.80
4312;DHT22;2169;49.086;9.284;2023-05-14T03:25:52;11.80;65.80
4312;DHT22;2169;49.086;9.284;2023-05-14T03:28:19;11.80;65.90
4312;DHT22;2169;49.086;9.284;2023-05-14T03:30:46;11.80;65.90
4312;DHT22;2169;49.086;9.284;2023-05-14T03:33:13;11.80;65.90
4312;DHT22;2169;49.086;9.284;2023-05-14T03:35:40;11.80;65.80
4312;DHT22;2169;49.086;9.284;2023-05-14T03:38:06;11.80;65.90
4312;DHT22;2169;49.086;9.284;2023-05-14T03:40:34;11.80;65.90
4312;DHT22;2169;49.086;9.284;2023-05-14T03:43:01;11.70;65.90
4312;DHT22;2169;49.086;9.284;2023-05-14T03:45:28;11.70;65.90
4312;DHT22;2169;49.086;9.284;2023-05-14T03:47:55;11.70;66.00
4312;DHT22;2169;49.086;9.284;2023-05-14T03:50:21;11.70;66.10
4312;DHT22;2169;49.086;9.284;2023-05-14T03:52:49;11.70;66.20
4312;DHT22;2169;49.086;9.284;2023-05-14T03:55:17;11.70;66.20
4312;DHT22;2169;49.086;9.284;2023-05-14T03:57:46;11.70;66.30
4312;DHT22;2169;49.086;9.284;2023-05-14T04:00:13;11.70;66.30
4312;DHT22;2169;49.086;9.284;2023-05-14T04:02:41;11.70;66.30
4312;DHT22;2169;49.086;9.284;2023-05-14T04:05:08;11.70;66.30
4312;DHT22;2169;49.086;9.284;2023-05-14T04:07:35;11.70;66.30
4312;DHT22;2169;49.086;9.284;2023-05-14T04:10:02;11.70;66.30
4312;DHT22;2169;49.086;9.284;2023-05-14T04:12:28;11.70;66.40
4312;DHT22;2169;49.086;9.284;2023-05-14T04:14:57;11.70;66.40
4312;DHT22;2169;49.086;9.284;2023-05-14T04:17:24;11.70;66.50
4312;DHT22;2169;49.086;9.284;2023-05-14T04:19:51;11.70;66.60
4312;DHT22;2169;49.086;9.284;2023-05-14T04:22:17;11.70;66.70
4312;DHT22;2169;49.086;9.284;2023-05-14T04:24:44;11.70;66.70
4312;DHT22;2169;49.086;9.284;2023-05-14T04:27:13;11.70;66.70
4312;DHT22;2169;49.086;9.284;2023-05-14T04:29:40;11.70;66.70
4312;DHT22;2169;49.086;9.284;2023-05-14T04:32:08;11.60;66.60
4312;DHT22;2169;49.086;9.284;2023-05-14T04:34:35;11.70;66.80
4312;DHT22;2169;49.086;9.284;2023-05-14T04:37:01;11.70;66.80
4312;DHT22;2169;49.086;9.284;2023-05-14T04:39:28;11.70;66.80
4312;DHT22;2169;49.086;9.284;2023-05-14T04:41:55;11.70;66.80
4312;DHT22;2169;49.086;9.284;2023-05-14T04:44:22;11.70;66.80
4312;DHT22;2169;49.086;9.284;2023-05-14T04:46:48;11.70;66.80
4312;DHT22;2169;49.086;9.284;2023-05-14T04:49:17;11.70;66.80
4312;DHT22;2169;49.086;9.284;2023-05-14T04:51:43;11.70;66.90
4312;DHT22;2169;49.086;9.284;2023-05-14T04:54:10;11.70;66.80
4312;DHT22;2169;49.086;9.284;2023-05-14T04:56:37;11.70;66.90
4312;DHT22;2169;49.086;9.284;2023-05-14T04:59:03;11.70;67.00
4312;DHT22;2169;49.086;9.284;2023-05-14T05:01:30;11.70;67.00
4312;DHT22;2169;49.086;9.284;2023-05-14T05:03:57;11.70;67.00
4312;DHT22;2169;49.086;9.284;2023-05-14T05:06:25;11.70;67.00
4312;DHT22;2169;49.086;9.284;2023-05-14T05:08:52;11.70;67.00
4312;DHT22;2169;49.086;9.284;2023-05-14T05:11:19;11.70;67.00
4312;DHT22;2169;49.086;9.284;2023-05-14T05:13:45;11.80;67.20
4312;DHT22;2169;49.086;9.284;2023-05-14T05:16:12;11.80;67.20
4312;DHT22;2169;49.086;9.284;2023-05-14T05:18:39;11.80;67.30
4312;DHT22;2169;49.086;9.284;2023-05-14T05:21:06;11.80;67.30
4312;DHT22;2169;49.086;9.284;2023-05-14T05:23:34;11.80;67.30
4312;DHT22;2169;49.086;9.284;2023-05-14T05:26:00;11.90;67.50
4312;DHT22;2169;49.086;9.284;2023-05-14T05:28:27;11.90;67.40
4312;DHT22;2169;49.086;9.284;2023-05-14T05:30:54;11.90;67.40
4312;DHT22;2169;49.086;9.284;2023-05-14T05:33:21;11.90;67.50
4312;DHT22;2169;49.086;9.284;2023-05-14T05:35:48;11.90;67.50
4312;DHT22;2169;49.086;9.284;2023-05-14T05:38:15;11.90;67.50
4312;DHT22;2169;49.086;9.284;2023-05-14T05:40:44;11.90;67.50
4312;DHT22;2169;49.086;9.284;2023-05-14T05:43:10;11.90;68.10
4312;DHT22;2169;49.086;9.284;2023-05-14T05:45:38;11.90;67.40
4312;DHT22;2169;49.086;9.284;2023-05-14T05:48:05;12.00;67.50
4312;DHT22;2169;49.086;9.284;2023-05-14T05:50:32;12.00;67.50
4312;DHT22;2169;49.086;9.284;2023-05-14T05:52:59;12.00;67.50
4312;DHT22;2169;49.086;9.284;2023-05-14T05:55:25;12.10;67.60
4312;DHT22;2169;49.086;9.284;2023-05-14T05:57:53;12.10;67.60
4312;DHT22;2169;49.086;9.284;2023-05-14T06:00:20;12.10;67.60
4312;DHT22;2169;49.086;9.284;2023-05-14T06:02:48;12.20;67.60
4312;DHT22;2169;49.086;9.284;2023-05-14T06:05:14;12.20;67.60
4312;DHT22;2169;49.086;9.284;2023-05-14T06:07:41;12.20;67.60
4312;DHT22;2169;49.086;9.284;2023-05-14T06:10:08;12.20;67.60
4312;DHT22;2169;49.086;9.284;2023-05-14T06:12:35;12.30;67.60
4312;DHT22;2169;49.086;9.284;2023-05-14T06:15:04;12.30;67.60
4312;DHT22;2169;49.086;9.284;2023-05-14T06:17:31;12.40;67.70
4312;DHT22;2169;49.086;9.284;2023-05-14T06:19:58;12.40;67.70
4312;DHT22;2169;49.086;9.284;2023-05-14T06:22:24;12.40;67.60
4312;DHT22;2169;49.086;9.284;2023-05-14T06:24:51;12.50;67.60
4312;DHT22;2169;49.086;9.284;2023-05-14T06:27:18;12.50;67.60
4312;DHT22;2169;49.086;9.284;2023-05-14T06:29:45;12.50;67.60
4312;DHT22;2169;49.086;9.284;2023-05-14T06:32:13;12.50;67.50
4312;DHT22;2169;49.086;9.284;2023-05-14T06:34:40;12.60;67.60
4312;DHT22;2169;49.086;9.284;2023-05-14T06:37:08;12.60;67.60
4312;DHT22;2169;49.086;9.284;2023-05-14T06:39:35;12.70;67.60
4312;DHT22;2169;49.086;9.284;2023-05-14T06:42:02;12.70;67.50
4312;DHT22;2169;49.086;9.284;2023-05-14T06:44:29;12.80;67.60
4312;DHT22;2169;49.086;9.284;2023-05-14T06:46:55;12.80;67.50
4312;DHT22;2169;49.086;9.284;2023-05-14T06:49:24;12.80;67.50
4312;DHT22;2169;49.086;9.284;2023-05-14T06:51:50;12.90;67.50
4312;DHT22;2169;49.086;9.284;2023-05-14T06:54:18;13.00;67.50
4312;DHT22;2169;49.086;9.284;2023-05-14T06:56:45;13.00;67.50
4312;DHT22;2169;49.086;9.284;2023-05-14T06:59:12;13.10;67.60
4312;DHT22;2169;49.086;9.284;2023-05-14T07:01:39;13.20;67.70
4312;DHT22;2169;49.086;9.284;2023-05-14T07:04:06;13.30;67.70
4312;DHT22;2169;49.086;9.284;2023-05-14T07:06:34;13.40;67.70
4312;DHT22;2169;49.086;9.284;2023-05-14T07:09:01;13.60;67.90
4312;DHT22;2169;49.086;9.284;2023-05-14T07:11:28;13.70;67.90
4312;DHT22;2169;49.086;9.284;2023-05-14T07:13:55;13.90;68.00
4312;DHT22;2169;49.086;9.284;2023-05-14T07:16:22;14.00;68.00
4312;DHT22;2169;49.086;9.284;2023-05-14T07:18:49;14.20;68.10
4312;DHT22;2169;49.086;9.284;2023-05-14T07:21:16;14.40;68.20
4312;DHT22;2169;49.086;9.284;2023-05-14T07:23:44;14.60;68.30
4312;DHT22;2169;49.086;9.284;2023-05-14T07:26:10;14.80;68.30
4312;DHT22;2169;49.086;9.284;2023-05-14T07:28:37;15.00;68.10
4312;DHT22;2169;49.086;9.284;2023-05-14T07:31:04;15.20;67.90
4312;DHT22;2169;49.086;9.284;2023-05-14T07:33:34;15.40;67.70
4312;DHT22;2169;49.086;9.284;2023-05-14T07:36:02;15.60;67.50
4312;DHT22;2169;49.086;9.284;2023-05-14T07:38:30;15.70;67.20
4312;DHT22;2169;49.086;9.284;2023-05-14T07:40:58;15.90;67.00
4312;DHT22;2169;49.086;9.284;2023-05-14T07:43:25;16.00;66.70
4312;DHT22;2169;49.086;9.284;2023-05-14T07:45:52;16.20;66.60
4312;DHT22;2169;49.086;9.284;2023-05-14T07:48:20;16.30;66.20
4312;DHT22;2169;49.086;9.284;2023-05-14T07:50:47;16.50;65.90
4312;DHT22;2169;49.086;9.284;2023-05-14T07:53:14;16.70;65.80
4312;DHT22;2169;49.086;9.284;2023-05-14T07:55:40;16.80;65.50
4312;DHT22;2169;49.086;9.284;2023-05-14T07:58:10;16.90;65.30
4312;DHT22;2169;49.086;9.284;2023-05-14T08:00:37;17.10;65.20
4312;DHT22;2169;49.086;9.284;2023-05-14T08:03:04;17.20;65.00
4312;DHT22;2169;49.086;9.284;2023-05-14T08:05:30;17.30;64.90
4312;DHT22;2169;49.086;9.284;2023-05-14T08:07:59;17.40;64.50
4312;DHT22;2169;49.086;9.284;2023-05-14T08:10:26;17.50;64.20
4312;DHT22;2169;49.086;9.284;2023-05-14T08:12:52;17.70;64.00
4312;DHT22;2169;49.086;9.284;2023-05-14T08:15:21;17.80;64.10
4312;DHT22;2169;49.086;9.284;2023-05-14T08:17:47;17.90;63.10
4312;DHT22;2169;49.086;9.284;2023-05-14T08:20:14;18.10;62.80
4312;DHT22;2169;49.086;9.284;2023-05-14T08:22:41;18.20;62.50
4312;DHT22;2169;49.086;9.284;2023-05-14T08:25:08;18.30;62.40
4312;DHT22;2169;49.086;9.284;2023-05-14T08:27:36;18.50;62.20
4312;DHT22;2169;49.086;9.284;2023-05-14T08:30:04;18.50;61.80
4312;DHT22;2169;49.086;9.284;2023-05-14T08:32:33;18.60;61.50
4312;DHT22;2169;49.086;9.284;2023-05-14T08:35:00;18.60;61.00
4312;DHT22;2169;49.086;9.284;2023-05-14T08:37:26;18.60;60.60
4312;DHT22;2169;49.086;9.284;2023-05-14T08:39:53;18.60;60.40
4312;DHT22;2169;49.086;9.284;2023-05-14T08:42:23;18.70;60.40
4312;DHT22;2169;49.086;9.284;2023-05-14T08:44:52;18.70;60.10
4312;DHT22;2169;49.086;9.284;2023-05-14T08:47:22;18.70;59.90
4312;DHT22;2169;49.086;9.284;2023-05-14T08:49:58;18.70;59.70
4312;DHT22;2169;49.086;9.284;2023-05-14T08:52:26;18.70;59.60
4312;DHT22;2169;49.086;9.284;2023-05-14T08:54:55;18.70;59.50
4312;DHT22;2169;49.086;9.284;2023-05-14T08:57:24;18.70;59.20
4312;DHT22;2169;49.086;9.284;2023-05-14T08:59:51;18.70;59.00
4312;DHT22;2169;49.086;9.284;2023-05-14T09:02:21;18.60;58.80
4312;DHT22;2169;49.086;9.284;2023-05-14T09:04:50;18.60;58.70
4312;DHT22;2169;49.086;9.284;2023-05-14T09:07:21;18.50;58.60
4312;DHT22;2169;49.086;9.284;2023-05-14T09:09:49;18.50;58.80
4312;DHT22;2169;49.086;9.284;2023-05-14T09:12:16;18.50;58.70
4312;DHT22;2169;49.086;9.284;2023-05-14T09:14:43;18.60;58.80
4312;DHT22;2169;49.086;9.284;2023-05-14T09:17:10;18.60;58.70
4312;DHT22;2169;49.086;9.284;2023-05-14T09:19:38;18.60;58.50
4312;DHT22;2169;49.086;9.284;2023-05-14T09:22:08;18.70;58.50
4312;DHT22;2169;49.086;9.284;2023-05-14T09:24:37;18.70;58.50
4312;DHT22;2169;49.086;9.284;2023-05-14T09:27:05;18.70;58.00
4312;DHT22;2169;49.086;9.284;2023-05-14T09:29:32;18.80;58.00
4312;DHT22;2169;49.086;9.284;2023-05-14T09:32:00;18.70;57.90
4312;DHT22;2169;49.086;9.284;2023-05-14T09:34:31;18.80;57.90
4312;DHT22;2169;49.086;9.284;2023-05-14T09:36:59;18.80;57.80
4312;DHT22;2169;49.086;9.284;2023-05-14T09:39:26;18.90;57.80
4312;DHT22;2169;49.086;9.284;2023-05-14T09:41:55;18.90;57.70
4312;DHT22;2169;49.086;9.284;2023-05-14T09:44:22;18.90;57.50
4312;DHT22;2169;49.086;9.284;2023-05-14T09:46:49;18.90;57.40
4312;DHT22;2169;49.086;9.284;2023-05-14T09:49:17;18.90;57.30
4312;DHT22;2169;49.086;9.284;2023-05-14T09:51:44;19.00;57.20
4312;DHT22;2169;49.086;9.284;2023-05-14T09:54:11;18.90;57.00
4312;DHT22;2169;49.086;9.284;2023-05-14T09:56:37;19.00;57.10
4312;DHT22;2169;49.086;9.284;2023-05-14T09:59:06;19.00;57.00
4312;DHT22;2169;49.086;9.284;2023-05-14T10:01:33;19.00;56.90
4312;DHT22;2169;49.086;9.284;2023-05-14T10:04:02;19.10;57.00
4312;DHT22;2169;49.086;9.284;2023-05-14T10:06:31;19.10;56.90
4312;DHT22;2169;49.086;9.284;2023-05-14T10:09:02;19.20;56.70
4312;DHT22;2169;49.086;9.284;2023-05-14T10:11:31;19.20;56.60
4312;DHT22;2169;49.086;9.284;2023-05-14T10:14:02;19.20;56.50
4312;DHT22;2169;49.086;9.284;2023-05-14T10:16:33;19.20;56.40
4312;DHT22;2169;49.086;9.284;2023-05-14T10:19:04;19.10;56.30
4312;DHT22;2169;49.086;9.284;2023-05-14T10:21:34;19.20;56.30
4312;DHT22;2169;49.086;9.284;2023-05-14T10:24:01;19.20;56.00
4312;DHT22;2169;49.086;9.284;2023-05-14T10:26:29;19.10;56.00
4312;DHT22;2169;49.086;9.284;2023-05-14T10:28:56;19.20;56.00
4312;DHT22;2169;49.086;9.284;2023-05-14T10:31:26;19.20;55.80
4312;DHT22;2169;49.086;9.284;2023-05-14T10:34:35;19.20;55.60
4312;DHT22;2169;49.086;9.284;2023-05-14T10:37:04;19.30;55.50
4312;DHT22;2169;49.086;9.284;2023-05-14T10:39:43;19.30;55.50
4312;DHT22;2169;49.086;9.284;2023-05-14T10:42:10;19.40;55.50
4312;DHT22;2169;49.086;9.284;2023-05-14T10:44:41;19.30;55.40
4312;DHT22;2169;49.086;9.284;2023-05-14T10:47:10;19.30;55.40
4312;DHT22;2169;49.086;9.284;2023-05-14T10:49:38;19.30;55.50
4312;DHT22;2169;49.086;9.284;2023-05-14T10:52:07;19.40;55.50
4312;DHT22;2169;49.086;9.284;2023-05-14T10:54:34;19.40;55.30
4312;DHT22;2169;49.086;9.284;2023-05-14T10:57:02;19.40;55.30
4312;DHT22;2169;49.086;9.284;2023-05-14T10:59:29;19.30;55.10
4312;DHT22;2169;49.086;9.284;2023-05-14T11:01:56;19.30;55.20
4312;DHT22;2169;49.086;9.284;2023-05-14T11:04:23;19.30;55.30
4312;DHT22;2169;49.086;9.284;2023-05-14T11:06:52;19.40;55.30
4312;DHT22;2169;49.086;9.284;2023-05-14T11:09:20;19.40;55.50
4312;DHT22;2169;49.086;9.284;2023-05-14T11:11:47;19.50;55.40
4312;DHT22;2169;49.086;9.284;2023-05-14T11:14:14;19.50;55.30
4312;DHT22;2169;49.086;9.284;2023-05-14T11:16:41;19.40;55.00
4312;DHT22;2169;49.086;9.284;2023-05-14T11:19:08;19.30;55.10
4312;DHT22;2169;49.086;9.284;2023-05-14T11:21:34;19.30;55.10
4312;DHT22;2169;49.086;9.284;2023-05-14T11:24:03;19.30;55.20
4312;DHT22;2169;49.086;9.284;2023-05-14T11:26:31;19.40;55.20
4312;DHT22;2169;49.086;9.284;2023-05-14T11:28:59;19.50;55.10
4312;DHT22;2169;49.086;9.284;2023-05-14T11:31:26;19.60;55.00
4312;DHT22;2169;49.086;9.284;2023-05-14T11:33:53;19.60;55.00
4312;DHT22;2169;49.086;9.284;2023-05-14T11:36:20;19.70;54.70
4312;DHT22;2169;49.086;9.284;2023-05-14T11:38:48;19.80;54.70
4312;DHT22;2169;49.086;9.284;2023-05-14T11:41:17;19.80;54.50
4312;DHT22;2169;49.086;9.284;2023-05-14T11:43:46;19.80;54.40
4312;DHT22;2169;49.086;9.284;2023-05-14T11:46:16;19.90;55.00
4312;DHT22;2169;49.086;9.284;2023-05-14T11:48:43;19.80;54.20
4312;DHT22;2169;49.086;9.284;2023-05-14T11:51:10;19.80;54.20
4312;DHT22;2169;49.086;9.284;2023-05-14T11:53:37;19.90;55.10
4312;DHT22;2169;49.086;9.284;2023-05-14T11:56:04;19.90;54.50
4312;DHT22;2169;49.086;9.284;2023-05-14T11:58:32;19.90;54.30
4312;DHT22;2169;49.086;9.284;2023-05-14T12:00:59;20.00;54.40
4312;DHT22;2169;49.086;9.284;2023-05-14T12:03:26;20.00;54.30
4312;DHT22;2169;49.086;9.284;2023-05-14T12:05:55;20.00;54.40
4312;DHT22;2169;49.086;9.284;2023-05-14T12:08:25;20.10;54.30
4312;DHT22;2169;49.086;9.284;2023-05-14T12:10:52;20.10;54.10
4312;DHT22;2169;49.086;9.284;2023-05-14T12:13:19;20.10;54.10
4312;DHT22;2169;49.086;9.284;2023-05-14T12:15:53;20.20;54.10
4312;DHT22;2169;49.086;9.284;2023-05-14T12:18:20;20.20;53.80
4312;DHT22;2169;49.086;9.284;2023-05-14T12:20:47;20.20;54.00
4312;DHT22;2169;49.086;9.284;2023-05-14T12:23:15;20.20;53.70
4312;DHT22;2169;49.086;9.284;2023-05-14T12:25:49;20.20;53.70
4312;DHT22;2169;49.086;9.284;2023-05-14T12:28:16;20.30;53.60
4312;DHT22;2169;49.086;9.284;2023-05-14T12:30:42;20.30;53.60
4312;DHT22;2169;49.086;9.284;2023-05-14T12:33:10;20.30;53.30
4312;DHT22;2169;49.086;9.284;2023-05-14T12:35:37;20.30;53.20
4312;DHT22;2169;49.086;9.284;2023-05-14T12:38:05;20.30;53.40
4312;DHT22;2169;49.086;9.284;2023-05-14T12:40:32;20.40;53.20
4312;DHT22;2169;49.086;9.284;2023-05-14T12:42:59;20.40;53.00
4312;DHT22;2169;49.086;9.284;2023-05-14T12:45:25;20.40;52.80
4312;DHT22;2169;49.086;9.284;2023-05-14T12:47:52;20.50;52.60
4312;DHT22;2169;49.086;9.284;2023-05-14T12:50:20;20.50;52.50
4312;DHT22;2169;49.086;9.284;2023-05-14T12:52:47;20.50;52.50
4312;DHT22;2169;49.086;9.284;2023-05-14T12:55:14;20.50;52.40
4312;DHT22;2169;49.086;9.284;2023-05-14T12:57:41;20.50;52.60
4312;DHT22;2169;49.086;9.284;2023-05-14T13:00:08;20.50;52.60
4312;DHT22;2169;49.086;9.284;2023-05-14T13:02:36;20.50;52.50
4312;DHT22;2169;49.086;9.284;2023-05-14T13:05:03;20.50;52.60
4312;DHT22;2169;49.086;9.284;2023-05-14T13:07:32;20.40;52.60
4312;DHT22;2169;49.086;9.284;2023-05-14T13:09:59;20.40;52.30
4312;DHT22;2169;49.086;9.284;2023-05-14T13:12:25;20.30;52.20
4312;DHT22;2169;49.086;9.284;2023-05-14T13:14:52;20.30;52.40
4312;DHT22;2169;49.086;9.284;2023-05-14T13:17:19;20.30;52.50
4312;DHT22;2169;49.086;9.284;2023-05-14T13:19:45;20.30;52.50
4312;DHT22;2169;49.086;9.284;2023-05-14T13:22:12;20.30;52.50
4312;DHT22;2169;49.086;9.284;2023-05-14T13:24:42;20.30;52.10
4312;DHT22;2169;49.086;9.284;2023-05-14T13:27:09;20.30;52.00
4312;DHT22;2169;49.086;9.284;2023-05-14T13:29:36;20.30;52.10
4312;DHT22;2169;49.086;9.284;2023-05-14T13:32:03;20.30;52.70
4312;DHT22;2169;49.086;9.284;2023-05-14T13:34:30;20.40;52.10
4312;DHT22;2169;49.086;9.284;2023-05-14T13:36:57;20.40;52.00
4312;DHT22;2169;49.086;9.284;2023-05-14T13:39:24;20.50;52.20
4312;DHT22;2169;49.086;9.284;2023-05-14T13:41:53;20.50;51.90
4312;DHT22;2169;49.086;9.284;2023-05-14T13:44:21;20.60;51.80
4312;DHT22;2169;49.086;9.284;2023-05-14T13:46:47;20.60;51.70
4312;DHT22;2169;49.086;9.284;2023-05-14T13:49:14;20.70;51.70
4312;DHT22;2169;49.086;9.284;2023-05-14T13:51:41;20.70;51.60
4312;DHT22;2169;49.086;9.284;2023-05-14T13:54:07;20.70;51.70
4312;DHT22;2169;49.086;9.284;2023-05-14T13:56:34;20.70;51.60
4312;DHT22;2169;49.086;9.284;2023-05-14T13:59:02;20.70;51.30
4312;DHT22;2169;49.086;9.284;2023-05-14T14:01:29;20.70;50.60
4312;DHT22;2169;49.086;9.284;2023-05-14T14:03:56;20.70;50.50
4312;DHT22;2169;49.086;9.284;2023-05-14T14:06:24;20.80;50.60
4312;DHT22;2169;49.086;9.284;2023-05-14T14:08:51;20.80;50.60
4312;DHT22;2169;49.086;9.284;2023-05-14T14:11:18;20.90;50.60
4312;DHT22;2169;49.086;9.284;2023-05-14T14:13:45;20.90;50.30
4312;DHT22;2169;49.086;9.284;2023-05-14T14:16:13;20.90;50.20
4312;DHT22;2169;49.086;9.284;2023-05-14T14:18:40;21.00;50.50
4312;DHT22;2169;49.086;9.284;2023-05-14T14:21:07;21.00;50.40
4312;DHT22;2169;49.086;9.284;2023-05-14T14:23:34;21.00;50.30
4312;DHT22;2169;49.086;9.284;2023-05-14T14:26:01;21.10;50.30
4312;DHT22;2169;49.086;9.284;2023-05-14T14:28:28;21.20;50.00
4312;DHT22;2169;49.086;9.284;2023-05-14T14:30:55;21.20;50.10
4312;DHT22;2169;49.086;9.284;2023-05-14T14:33:23;21.20;50.10
4312;DHT22;2169;49.086;9.284;2023-05-14T14:35:50;21.20;50.00
4312;DHT22;2169;49.086;9.284;2023-05-14T14:38:17;21.20;50.00
4312;DHT22;2169;49.086;9.284;2023-05-14T14:40:44;21.10;49.60
4312;DHT22;2169;49.086;9.284;2023-05-14T14:43:11;21.10;49.70
4312;DHT22;2169;49.086;9.284;2023-05-14T14:45:38;21.00;49.60
4312;DHT22;2169;49.086;9.284;2023-05-14T14:48:26;21.10;49.70
4312;DHT22;2169;49.086;9.284;2023-05-14T14:50:56;21.10;49.50
4312;DHT22;2169;49.086;9.284;2023-05-14T14:53:23;21.10;49.40
4312;DHT22;2169;49.086;9.284;2023-05-14T14:55:50;21.10;49.40
4312;DHT22;2169;49.086;9.284;2023-05-14T14:58:18;21.10;49.30
4312;DHT22;2169;49.086;9.284;2023-05-14T15:00:45;21.10;49.50
4312;DHT22;2169;49.086;9.284;2023-05-14T15:03:12;21.20;49.60
4312;DHT22;2169;49.086;9.284;2023-05-14T15:05:40;21.30;49.50
4312;DHT22;2169;49.086;9.284;2023-05-14T15:08:07;21.30;49.10
4312;DHT22;2169;49.086;9.284;2023-05-14T15:10:34;21.40;49.20
4312;DHT22;2169;49.086;9.284;2023-05-14T15:13:02;21.40;49.10
4312;DHT22;2169;49.086;9.284;2023-05-14T15:15:29;21.50;49.00
4312;DHT22;2169;49.086;9.284;2023-05-14T15:17:56;21.50;48.60
4312;DHT22;2169;49.086;9.284;2023-05-14T15:20:23;21.50;48.40
4312;DHT22;2169;49.086;9.284;2023-05-14T15:22:51;21.50;48.70
4312;DHT22;2169;49.086;9.284;2023-05-14T15:25:18;21.60;48.60
4312;DHT22;2169;49.086;9.284;2023-05-14T15:27:45;21.70;48.60
4312;DHT22;2169;49.086;9.284;2023-05-14T15:30:13;21.80;48.40
4312;DHT22;2169;49.086;9.284;2023-05-14T15:32:40;21.90;48.20
4312;DHT22;2169;49.086;9.284;2023-05-14T15:35:07;21.90;48.10
4312;DHT22;2169;49.086;9.284;2023-05-14T15:37:36;22.00;47.90
4312;DHT22;2169;49.086;9.284;2023-05-14T15:40:05;22.00;47.80
4312;DHT22;2169;49.086;9.284;2023-05-14T15:42:34;22.00;47.70
4312;DHT22;2169;49.086;9.284;2023-05-14T15:45:01;22.10;47.70
4312;DHT22;2169;49.086;9.284;2023-05-14T15:47:27;22.10;47.60
4312;DHT22;2169;49.086;9.284;2023-05-14T15:49:54;22.10;47.50
4312;DHT22;2169;49.086;9.284;2023-05-14T15:52:21;22.20;47.60
4312;DHT22;2169;49.086;9.284;2023-05-14T15:54:48;22.20;47.50
4312;DHT22;2169;49.086;9.284;2023-05-14T15:57:16;22.20;47.30
4312;DHT22;2169;49.086;9.284;2023-05-14T15:59:43;22.20;47.10
4312;DHT22;2169;49.086;9.284;2023-05-14T16:02:10;22.20;47.10
4312;DHT22;2169;49.086;9.284;2023-05-14T16:04:36;22.30;47.00